createdAt,value
2018-10-09T00:00:21.609Z,101821.23
2018-10-09T00:02:48.700Z,101834.06
2018-10-09T00:05:15.733Z,101835.24
2018-10-09T00:07:42.678Z,101842.48
2018-10-09T00:10:09.645Z,101848.55
2018-10-09T00:12:37.916Z,101856.64
2018-10-09T00:15:04.940Z,101859.86
2018-10-09T00:17:31.892Z,101853.61
2018-10-09T00:19:58.832Z,101857.14
2018-10-09T00:22:25.757Z,101858.00
2018-10-09T00:24:52.684Z,101855.80
2018-10-09T00:27:19.652Z,101859.17
2018-10-09T00:29:46.605Z,101842.11
2018-10-09T00:32:13.565Z,101839.27
2018-10-09T00:34:40.509Z,101840.30
2018-10-09T00:37:07.597Z,101837.73
2018-10-09T00:39:34.569Z,101831.52
2018-10-09T00:42:01.512Z,101837.23
2018-10-09T00:44:28.460Z,101827.28
2018-10-09T00:46:55.390Z,101826.09
2018-10-09T00:49:22.329Z,101837.41
2018-10-09T00:51:49.287Z,101833.03
2018-10-09T00:54:16.425Z,101835.38
2018-10-09T00:56:43.397Z,101835.86
2018-10-09T00:59:10.376Z,101829.64
2018-10-09T01:01:37.357Z,101822.39
2018-10-09T01:04:04.285Z,101830.31
2018-10-09T01:06:31.224Z,101832.69
2018-10-09T01:08:58.202Z,101823.43
2018-10-09T01:11:25.376Z,101829.31
2018-10-09T01:13:53.014Z,101830.66
2018-10-09T01:16:20.830Z,101831.69
2018-10-09T01:18:47.768Z,101837.42
2018-10-09T01:21:14.729Z,101833.55
2018-10-09T01:23:41.664Z,101830.52
2018-10-09T01:26:09.590Z,101825.78
2018-10-09T01:28:36.506Z,101834.54
2018-10-09T01:31:03.449Z,101823.59
2018-10-09T01:33:30.509Z,101834.20
2018-10-09T01:35:57.544Z,101830.31
2018-10-09T01:38:24.468Z,101834.02
2018-10-09T01:40:51.413Z,101828.64
2018-10-09T01:43:18.353Z,101826.61
2018-10-09T01:45:45.305Z,101822.22
2018-10-09T01:48:12.340Z,101815.30
2018-10-09T01:50:39.273Z,101810.43
2018-10-09T01:53:06.199Z,101811.45
2018-10-09T01:55:33.145Z,101807.08
2018-10-09T01:58:00.121Z,101805.72
2018-10-09T02:00:27.053Z,101792.56
2018-10-09T02:02:53.995Z,101803.71
2018-10-09T02:05:20.924Z,101799.67
2018-10-09T02:07:47.948Z,101792.06
2018-10-09T02:10:14.881Z,101787.86
2018-10-09T02:12:41.830Z,101785.48
2018-10-09T02:15:08.769Z,101781.42
2018-10-09T02:17:35.741Z,101787.83
2018-10-09T02:20:02.684Z,101774.36
2018-10-09T02:22:29.616Z,101761.72
2018-10-09T02:24:56.572Z,101767.11
2018-10-09T02:27:23.508Z,101771.47
2018-10-09T02:29:50.428Z,101764.58
2018-10-09T02:32:17.377Z,101766.59
2018-10-09T02:34:44.336Z,101771.30
2018-10-09T02:37:11.273Z,101769.13
2018-10-09T02:39:38.227Z,101771.97
2018-10-09T02:42:05.285Z,101772.48
2018-10-09T02:44:32.221Z,101767.91
2018-10-09T02:46:59.180Z,101769.24
2018-10-09T02:49:26.125Z,101774.30
2018-10-09T02:51:53.080Z,101780.86
2018-10-09T02:54:20.078Z,101795.68
2018-10-09T02:56:47.068Z,101802.59
2018-10-09T02:59:14.025Z,101798.20
2018-10-09T03:01:40.960Z,101796.54
2018-10-09T03:04:07.905Z,101792.81
2018-10-09T03:06:34.844Z,101787.09
2018-10-09T03:09:01.892Z,101788.06
2018-10-09T03:11:28.865Z,101794.80
2018-10-09T03:13:55.820Z,101786.58
2018-10-09T03:16:22.747Z,101791.47
2018-10-09T03:18:49.727Z,101782.55
2018-10-09T03:21:16.650Z,101788.77
2018-10-09T03:23:43.597Z,101788.45
2018-10-09T03:26:10.560Z,101781.02
2018-10-09T03:28:37.520Z,101776.97
2018-10-09T03:31:04.502Z,101788.78
2018-10-09T03:33:31.454Z,101787.77
2018-10-09T03:35:58.409Z,101790.13
2018-10-09T03:38:25.355Z,101801.39
2018-10-09T03:40:52.303Z,101799.72
2018-10-09T03:43:19.256Z,101813.03
2018-10-09T03:45:46.200Z,101813.66
2018-10-09T03:48:13.161Z,101789.39
2018-10-09T03:50:40.098Z,101784.84
2018-10-09T03:53:07.044Z,101802.52
2018-10-09T03:55:33.989Z,101805.19
2018-10-09T03:58:00.929Z,101796.63
2018-10-09T04:00:27.898Z,101802.70
2018-10-09T04:02:54.819Z,101803.67
2018-10-09T04:05:21.797Z,101803.84
2018-10-09T04:07:48.749Z,101797.77
2018-10-09T04:10:15.717Z,101789.02
2018-10-09T04:12:42.728Z,101786.19
2018-10-09T04:15:10.151Z,101782.31
2018-10-09T04:17:37.177Z,101787.02
2018-10-09T04:20:05.375Z,101777.74
2018-10-09T04:22:32.373Z,101771.52
2018-10-09T04:24:59.457Z,101773.19
2018-10-09T04:27:26.432Z,101774.12
2018-10-09T04:29:53.432Z,101778.52
2018-10-09T04:32:20.736Z,101779.69
2018-10-09T04:34:47.908Z,101775.97
2018-10-09T04:37:14.877Z,101771.92
2018-10-09T04:39:41.841Z,101770.75
2018-10-09T04:42:08.801Z,101763.33
2018-10-09T04:44:35.789Z,101776.11
2018-10-09T04:47:02.740Z,101778.11
2018-10-09T04:49:36.501Z,101770.03
2018-10-09T04:52:03.445Z,101767.34
2018-10-09T04:54:30.397Z,101764.51
2018-10-09T04:56:57.333Z,101771.38
2018-10-09T04:59:24.284Z,101765.66
2018-10-09T05:01:51.325Z,101762.96
2018-10-09T05:04:18.281Z,101766.66
2018-10-09T05:06:45.217Z,101774.73
2018-10-09T05:09:12.269Z,101778.08
2018-10-09T05:11:39.206Z,101777.08
2018-10-09T05:14:06.230Z,101773.36
2018-10-09T05:16:33.172Z,101770.98
2018-10-09T05:19:00.123Z,101774.88
2018-10-09T05:21:27.122Z,101769.77
2018-10-09T05:23:57.985Z,101769.28
2018-10-09T05:26:25.019Z,101763.91
2018-10-09T05:28:52.001Z,101765.39
2018-10-09T05:31:19.066Z,101764.05
2018-10-09T05:33:45.986Z,101773.12
2018-10-09T05:36:12.969Z,101767.22
2018-10-09T05:38:39.961Z,101770.77
2018-10-09T05:41:07.007Z,101782.54
2018-10-09T05:43:33.991Z,101790.51
2018-10-09T05:46:00.966Z,101789.54
2018-10-09T05:48:27.917Z,101785.53
2018-10-09T05:50:54.878Z,101793.64
2018-10-09T05:53:21.833Z,101785.77
2018-10-09T05:55:48.805Z,101796.53
2018-10-09T05:58:15.766Z,101795.94
2018-10-09T06:00:42.756Z,101808.39
2018-10-09T06:03:09.726Z,101804.21
2018-10-09T06:05:36.693Z,101806.59
2018-10-09T06:08:03.663Z,101811.48
2018-10-09T06:10:30.629Z,101808.30
2018-10-09T06:12:57.591Z,101812.85
2018-10-09T06:15:24.579Z,101825.48
2018-10-09T06:17:51.501Z,101811.20
2018-10-09T06:20:25.214Z,101813.73
2018-10-09T06:22:52.497Z,101808.70
2018-10-09T06:25:19.473Z,101815.44
2018-10-09T06:27:46.434Z,101828.91
2018-10-09T06:30:13.468Z,101824.20
2018-10-09T06:32:40.445Z,101808.55
2018-10-09T06:35:07.421Z,101820.48
2018-10-09T06:37:34.384Z,101820.50
2018-10-09T06:40:01.350Z,101815.64
2018-10-09T06:42:28.323Z,101817.66
2018-10-09T06:44:55.305Z,101822.75
2018-10-09T06:47:22.326Z,101824.60
2018-10-09T06:49:49.250Z,101828.98
2018-10-09T06:52:16.211Z,101827.30
2018-10-09T06:54:43.281Z,101828.66
2018-10-09T06:57:10.142Z,101832.70
2018-10-09T06:59:43.942Z,101837.11
2018-10-09T07:02:10.905Z,101838.65
2018-10-09T07:04:37.849Z,101849.77
2018-10-09T07:07:05.150Z,101846.55
2018-10-09T07:09:32.126Z,101843.87
2018-10-09T07:11:59.107Z,101831.56
2018-10-09T07:14:26.069Z,101834.76
2018-10-09T07:16:53.039Z,101836.94
2018-10-09T07:19:19.987Z,101833.73
2018-10-09T07:21:46.962Z,101844.20
2018-10-09T07:24:13.935Z,101845.87
2018-10-09T07:26:40.876Z,101852.93
2018-10-09T07:29:07.853Z,101858.64
2018-10-09T07:31:34.803Z,101851.89
2018-10-09T07:34:01.782Z,101860.81
2018-10-09T07:36:28.745Z,101858.36
2018-10-09T07:38:55.718Z,101862.55
2018-10-09T07:41:22.673Z,101862.02
2018-10-09T07:43:49.666Z,101862.67
2018-10-09T07:46:16.633Z,101857.06
2018-10-09T07:48:43.589Z,101850.98
2018-10-09T07:51:10.579Z,101856.69
2018-10-09T07:53:37.555Z,101864.73
2018-10-09T07:56:04.520Z,101854.23
2018-10-09T07:58:31.508Z,101858.48
2018-10-09T08:00:58.459Z,101867.73
2018-10-09T08:03:25.421Z,101854.56
2018-10-09T08:05:52.408Z,101866.53
2018-10-09T08:08:19.362Z,101861.78
2018-10-09T08:10:46.466Z,101864.09
2018-10-09T08:13:13.382Z,101871.67
2018-10-09T08:15:40.345Z,101875.91
2018-10-09T08:18:07.273Z,101872.31
2018-10-09T08:20:34.217Z,101873.59
2018-10-09T08:23:01.262Z,101872.22
2018-10-09T08:25:28.530Z,101877.62
2018-10-09T08:27:55.570Z,101882.13
2018-10-09T08:30:22.483Z,101888.13
2018-10-09T08:32:49.454Z,101882.11
2018-10-09T08:35:16.572Z,101886.75
2018-10-09T08:37:43.594Z,101891.78
2018-10-09T08:40:10.580Z,101886.53
2018-10-09T08:42:37.542Z,101883.92
2018-10-09T08:45:04.898Z,101881.09
2018-10-09T08:47:31.965Z,101877.61
2018-10-09T08:49:58.945Z,101877.71
2018-10-09T08:52:25.902Z,101867.00
2018-10-09T08:54:52.858Z,101878.44
2018-10-09T08:57:19.817Z,101878.48
2018-10-09T08:59:46.833Z,101874.34
2018-10-09T09:02:13.856Z,101877.97
2018-10-09T09:04:40.795Z,101884.62
2018-10-09T09:07:07.749Z,101880.80
2018-10-09T09:09:34.754Z,101876.08
2018-10-09T09:12:01.678Z,101880.48
2018-10-09T09:14:28.626Z,101889.67
2018-10-09T09:16:55.607Z,101888.19
2018-10-09T09:19:22.590Z,101889.16
2018-10-09T09:21:49.562Z,101897.75
2018-10-09T09:24:16.509Z,101895.56
2018-10-09T09:26:43.584Z,101879.00
2018-10-09T09:29:10.455Z,101881.66
2018-10-09T09:31:37.423Z,101874.25
2018-10-09T09:34:04.399Z,101875.88
2018-10-09T09:36:31.373Z,101845.89
2018-10-09T09:38:58.323Z,101889.58
2018-10-09T09:41:25.342Z,101882.72
2018-10-09T09:43:52.331Z,101880.05
2018-10-09T09:46:19.371Z,101880.25
2018-10-09T09:48:46.273Z,101891.52
2018-10-09T09:51:13.233Z,101887.18
2018-10-09T09:53:40.249Z,101886.32
2018-10-09T09:56:07.265Z,101891.80
2018-10-09T09:58:34.439Z,101893.92
2018-10-09T10:01:06.975Z,101892.39
2018-10-09T10:03:34.075Z,101898.09
2018-10-09T10:06:01.042Z,101898.47
2018-10-09T10:08:28.018Z,101900.59
2018-10-09T10:10:54.978Z,101907.47
2018-10-09T10:13:22.001Z,101900.68
2018-10-09T10:15:49.075Z,101904.43
2018-10-09T10:18:15.922Z,101910.63
2018-10-09T10:20:42.904Z,101902.48
2018-10-09T10:23:09.858Z,101904.41
2018-10-09T10:25:36.807Z,101902.52
2018-10-09T10:28:03.817Z,101901.03
2018-10-09T10:30:30.765Z,101897.05
2018-10-09T10:32:57.727Z,101898.09
2018-10-09T10:35:24.705Z,101894.59
2018-10-09T10:37:51.660Z,101902.36
2018-10-09T10:40:18.646Z,101889.71
2018-10-09T10:42:45.593Z,101891.90
2018-10-09T10:45:12.760Z,101886.13
2018-10-09T10:47:39.756Z,101891.26
2018-10-09T10:50:06.759Z,101897.71
2018-10-09T10:52:33.833Z,101893.05
2018-10-09T10:55:00.852Z,101888.48
2018-10-09T10:57:27.758Z,101886.72
2018-10-09T10:59:54.769Z,101882.06
2018-10-09T11:02:21.834Z,101877.20
2018-10-09T11:04:49.121Z,101869.86
2018-10-09T11:07:16.086Z,101876.41
2018-10-09T11:09:43.098Z,101872.67
2018-10-09T11:12:10.374Z,101875.05
2018-10-09T11:14:37.406Z,101876.41
2018-10-09T11:17:04.354Z,101881.95
2018-10-09T11:19:31.314Z,101887.34
2018-10-09T11:21:58.273Z,101895.67
2018-10-09T11:24:25.252Z,101902.59
2018-10-09T11:26:53.414Z,101904.57
2018-10-09T11:29:20.399Z,101901.03
2018-10-09T11:31:47.840Z,101883.92
2018-10-09T11:34:14.833Z,101898.54
2018-10-09T11:36:41.817Z,101896.12
2018-10-09T11:39:09.198Z,101893.70
2018-10-09T11:41:36.222Z,101896.85
2018-10-09T11:44:03.405Z,101888.89
2018-10-09T11:46:30.373Z,101886.39
2018-10-09T11:48:57.377Z,101887.70
2018-10-09T11:51:24.379Z,101885.72
2018-10-09T11:53:51.354Z,101893.58
2018-10-09T11:56:18.321Z,101884.84
2018-10-09T11:58:45.352Z,101884.77
2018-10-09T12:01:12.310Z,101881.66
2018-10-09T12:03:39.348Z,101878.94
2018-10-09T12:06:06.373Z,101879.30
2018-10-09T12:08:33.356Z,101876.42
2018-10-09T12:11:00.855Z,101873.69
2018-10-09T12:13:27.847Z,101879.06
2018-10-09T12:15:54.887Z,101875.97
2018-10-09T12:18:21.808Z,101870.00
2018-10-09T12:20:48.791Z,101861.50
2018-10-09T12:23:15.782Z,101862.52
2018-10-09T12:25:42.753Z,101860.02
2018-10-09T12:28:09.807Z,101850.70
2018-10-09T12:30:36.788Z,101842.92
2018-10-09T12:33:03.845Z,101850.27
2018-10-09T12:35:30.746Z,101845.41
2018-10-09T12:37:57.726Z,101853.63
2018-10-09T12:40:24.716Z,101853.66
2018-10-09T12:42:51.725Z,101857.27
2018-10-09T12:45:18.935Z,101844.21
2018-10-09T12:47:45.923Z,101850.55
2018-10-09T12:50:12.906Z,101851.47
2018-10-09T12:52:39.865Z,101853.81
2018-10-09T12:55:07.322Z,101846.87
2018-10-09T12:57:34.323Z,101847.17
2018-10-09T13:00:01.320Z,101840.39
2018-10-09T13:02:28.341Z,101843.37
2018-10-09T13:04:55.341Z,101850.80
2018-10-09T13:07:22.893Z,101844.89
2018-10-09T13:09:49.861Z,101844.94
2018-10-09T13:12:16.866Z,101842.53
2018-10-09T13:14:43.847Z,101836.38
2018-10-09T13:17:10.857Z,101841.18
2018-10-09T13:19:37.817Z,101841.71
2018-10-09T13:22:05.042Z,101832.61
2018-10-09T13:24:31.779Z,101827.16
2018-10-09T13:26:58.846Z,101830.20
2018-10-09T13:29:25.789Z,101824.97
2018-10-09T13:31:52.761Z,101830.88
2018-10-09T13:34:19.916Z,101836.42
2018-10-09T13:36:46.887Z,101836.84
2018-10-09T13:39:13.856Z,101835.59
2018-10-09T13:41:40.839Z,101829.72
2018-10-09T13:44:07.932Z,101833.80
2018-10-09T13:46:36.105Z,101831.39
2018-10-09T13:49:03.082Z,101835.55
2018-10-09T13:51:30.028Z,101831.33
2018-10-09T13:53:57.021Z,101835.71
2018-10-09T13:56:24.777Z,101833.27
2018-10-09T13:58:51.735Z,101835.61
2018-10-09T14:01:18.711Z,101829.98
2018-10-09T14:03:45.711Z,101821.23
2018-10-09T14:06:12.737Z,101824.97
2018-10-09T14:08:39.690Z,101828.46
2018-10-09T14:11:06.980Z,101832.17
2018-10-09T14:13:33.958Z,101836.78
2018-10-09T14:16:00.942Z,101832.80
2018-10-09T14:18:27.917Z,101830.27
2018-10-09T14:20:54.866Z,101829.16
2018-10-09T14:23:21.808Z,101824.03
2018-10-09T14:25:48.809Z,101824.45
2018-10-09T14:28:15.757Z,101832.87
2018-10-09T14:30:42.710Z,101822.36
2018-10-09T14:33:09.666Z,101823.47
2018-10-09T14:35:36.624Z,101822.06
2018-10-09T14:38:03.578Z,101818.18
2018-10-09T14:40:30.617Z,101816.17
2018-10-09T14:42:57.574Z,101814.59
2018-10-09T14:45:24.562Z,101810.38
2018-10-09T14:47:51.493Z,101811.34
2018-10-09T14:50:18.473Z,101812.74
2018-10-09T14:52:45.419Z,101802.72
2018-10-09T14:55:12.394Z,101806.13
2018-10-09T14:57:39.391Z,101814.33
2018-10-09T15:00:07.740Z,101806.66
2018-10-09T15:02:34.697Z,101808.70
2018-10-09T15:05:01.663Z,101812.42
2018-10-09T15:07:28.621Z,101810.78
2018-10-09T15:09:55.593Z,101809.91
2018-10-09T15:12:22.551Z,101815.41
2018-10-09T15:14:49.498Z,101826.42
2018-10-09T15:17:16.474Z,101818.41
2018-10-09T15:19:43.417Z,101820.94
2018-10-09T15:22:10.390Z,101819.17
2018-10-09T15:24:37.321Z,101817.28
2018-10-09T15:27:04.282Z,101823.34
2018-10-09T15:29:31.219Z,101819.16
2018-10-09T15:31:58.166Z,101819.41
2018-10-09T15:34:25.097Z,101817.42
2018-10-09T15:36:52.064Z,101815.50
2018-10-09T15:39:19.008Z,101814.19
2018-10-09T15:41:46.054Z,101811.42
2018-10-09T15:44:13.002Z,101816.13
2018-10-09T15:46:40.008Z,101821.23
2018-10-09T15:49:07.039Z,101818.11
2018-10-09T15:51:34.002Z,101823.72
2018-10-09T15:54:01.198Z,101824.45
2018-10-09T15:56:29.017Z,101823.87
2018-10-09T15:58:55.946Z,101826.19
2018-10-09T16:01:22.960Z,101827.45
2018-10-09T16:03:49.919Z,101827.23
2018-10-09T16:06:16.897Z,101838.66
2018-10-09T16:08:43.868Z,101796.27
2018-10-09T16:11:10.828Z,101837.98
2018-10-09T16:13:37.793Z,101836.20
2018-10-09T16:16:04.744Z,101835.03
2018-10-09T16:18:31.721Z,101834.78
2018-10-09T16:20:58.674Z,101832.03
2018-10-09T16:23:25.621Z,101833.29
2018-10-09T16:25:52.581Z,101836.70
2018-10-09T16:28:19.549Z,101829.23
2018-10-09T16:30:46.518Z,101836.57
2018-10-09T16:33:13.490Z,101835.79
2018-10-09T16:35:40.447Z,101835.11
2018-10-09T16:38:08.031Z,101834.36
2018-10-09T16:40:36.829Z,101838.70
2018-10-09T16:43:03.821Z,101848.64
2018-10-09T16:45:30.763Z,101848.28
2018-10-09T16:47:57.741Z,101841.23
2018-10-09T16:50:24.682Z,101836.19
2018-10-09T16:52:52.907Z,101841.72
2018-10-09T16:55:19.862Z,101846.51
2018-10-09T16:57:47.675Z,101844.83
2018-10-09T17:00:15.151Z,101848.97
2018-10-09T17:02:42.710Z,101848.22
2018-10-09T17:05:09.653Z,101844.34
2018-10-09T17:07:36.633Z,101857.17
2018-10-09T17:10:03.761Z,101856.16
2018-10-09T17:12:30.708Z,101863.00
2018-10-09T17:14:57.653Z,101860.33
2018-10-09T17:17:24.670Z,101867.11
2018-10-09T17:19:51.740Z,101869.05
2018-10-09T17:22:18.600Z,101875.20
2018-10-09T17:24:45.517Z,101877.80
2018-10-09T17:27:12.474Z,101877.77
2018-10-09T17:29:39.409Z,101880.92
2018-10-09T17:32:06.381Z,101884.95
2018-10-09T17:34:33.342Z,101881.41
2018-10-09T17:37:00.285Z,101879.38
2018-10-09T17:39:27.234Z,101873.87
2018-10-09T17:41:54.178Z,101883.48
2018-10-09T17:44:21.170Z,101887.06
2018-10-09T17:46:48.226Z,101883.86
2018-10-09T17:49:15.116Z,101888.16
2018-10-09T17:51:42.041Z,101884.63
2018-10-09T17:54:08.993Z,101881.45
2018-10-09T17:56:35.935Z,101875.27
2018-10-09T17:59:02.910Z,101885.65
2018-10-09T18:01:29.861Z,101887.92
2018-10-09T18:03:56.797Z,101885.83
2018-10-09T18:06:23.762Z,101881.50
2018-10-09T18:08:50.744Z,101881.45
2018-10-09T18:11:17.733Z,101876.97
2018-10-09T18:13:44.641Z,101837.03
2018-10-09T18:16:11.590Z,101886.73
2018-10-09T18:18:38.539Z,101892.80
2018-10-09T18:21:05.515Z,101881.30
2018-10-09T18:23:32.445Z,101890.78
2018-10-09T18:26:00.021Z,101890.29
2018-10-09T18:28:26.982Z,101897.06
2018-10-09T18:30:53.941Z,101848.98
2018-10-09T18:33:21.181Z,101896.84
2018-10-09T18:35:48.001Z,101899.98
2018-10-09T18:38:14.989Z,101899.38
2018-10-09T18:40:42.048Z,101899.75
2018-10-09T18:43:08.918Z,101896.42
2018-10-09T18:45:35.893Z,101907.59
2018-10-09T18:48:02.829Z,101903.88
2018-10-09T18:50:29.814Z,101915.90
2018-10-09T18:52:56.772Z,101910.36
2018-10-09T18:55:23.738Z,101909.30
2018-10-09T18:57:50.686Z,101908.94
2018-10-09T19:00:17.689Z,101905.08
2018-10-09T19:02:44.653Z,101910.16
2018-10-09T19:05:11.625Z,101910.84
2018-10-09T19:07:39.034Z,101907.54
2018-10-09T19:10:06.322Z,101912.52
2018-10-09T19:12:33.295Z,101913.91
2018-10-09T19:15:00.263Z,101912.57
2018-10-09T19:17:27.265Z,101909.56
2018-10-09T19:19:54.678Z,101915.16
2018-10-09T19:22:21.677Z,101917.16
2018-10-09T19:24:48.714Z,101917.34
2018-10-09T19:27:15.786Z,101916.18
2018-10-09T19:29:42.923Z,101912.66
2018-10-09T19:32:10.620Z,101910.47
2018-10-09T19:34:37.560Z,101915.38
2018-10-09T19:37:04.649Z,101917.44
2018-10-09T19:39:31.659Z,101919.12
2018-10-09T19:42:00.318Z,101918.09
2018-10-09T19:44:27.286Z,101921.81
2018-10-09T19:46:54.366Z,101926.19
2018-10-09T19:49:21.305Z,101936.16
2018-10-09T19:51:48.274Z,101939.02
2018-10-09T19:54:15.342Z,101946.62
2018-10-09T19:56:42.444Z,101942.91
2018-10-09T19:59:09.670Z,101949.16
2018-10-09T20:01:36.704Z,101940.70
2018-10-09T20:04:03.660Z,101947.12
2018-10-09T20:06:32.822Z,101933.95
2018-10-09T20:08:59.785Z,101945.42
2018-10-09T20:11:26.821Z,101946.11
2018-10-09T20:13:53.843Z,101949.80
2018-10-09T20:16:21.131Z,101933.26
2018-10-09T20:18:48.455Z,101940.49
2018-10-09T20:21:15.662Z,101941.67
2018-10-09T20:23:42.649Z,101944.36
2018-10-09T20:26:09.598Z,101941.17
2018-10-09T20:28:37.412Z,101949.25
2018-10-09T20:31:04.412Z,101950.43
2018-10-09T20:33:31.906Z,101952.44
2018-10-09T20:35:58.948Z,101943.30
2018-10-09T20:38:25.954Z,101947.03
2018-10-09T20:40:52.925Z,101954.44
2018-10-09T20:43:19.926Z,101952.41
2018-10-09T20:45:47.077Z,101951.38
2018-10-09T20:48:14.217Z,101955.39
2018-10-09T20:50:41.165Z,101963.66
2018-10-09T20:53:08.126Z,101954.03
2018-10-09T20:55:35.376Z,101962.64
2018-10-09T20:58:02.378Z,101964.64
2018-10-09T21:00:29.341Z,101964.64
2018-10-09T21:02:56.681Z,101960.40
2018-10-09T21:05:24.076Z,101963.93
2018-10-09T21:07:51.024Z,101956.50
2018-10-09T21:10:18.014Z,101965.42
2018-10-09T21:12:44.957Z,101968.61
2018-10-09T21:15:11.923Z,101961.69
2018-10-09T21:17:38.945Z,101957.30
2018-10-09T21:20:06.260Z,101959.00
2018-10-09T21:22:33.206Z,101959.37
2018-10-09T21:25:00.201Z,101961.11
2018-10-09T21:27:27.150Z,101962.19
2018-10-09T21:29:54.200Z,101965.42
2018-10-09T21:32:21.065Z,101963.42
2018-10-09T21:34:48.058Z,101962.41
2018-10-09T21:37:15.015Z,101962.92
2018-10-09T21:39:41.989Z,101957.16
2018-10-09T21:42:08.963Z,101941.97
2018-10-09T21:44:35.894Z,101946.71
2018-10-09T21:47:02.885Z,101953.79
2018-10-09T21:49:29.824Z,101948.55
2018-10-09T21:51:56.778Z,101950.23
2018-10-09T21:54:23.733Z,101946.04
2018-10-09T21:56:50.714Z,101944.19
2018-10-09T21:59:17.685Z,101949.27
2018-10-09T22:01:44.711Z,101950.44
2018-10-09T22:04:11.749Z,101946.06
2018-10-09T22:06:38.746Z,101953.27
2018-10-09T22:09:07.001Z,101950.75
2018-10-09T22:11:34.005Z,101955.95
2018-10-09T22:14:00.974Z,101958.80
2018-10-09T22:16:27.925Z,101960.50
2018-10-09T22:18:54.985Z,101951.22
2018-10-09T22:21:22.130Z,101953.26
2018-10-09T22:23:49.085Z,101963.23
2018-10-09T22:26:16.230Z,101963.20
2018-10-09T22:28:43.346Z,101958.13
2018-10-09T22:31:10.444Z,101968.22
2018-10-09T22:33:37.424Z,101960.72
2018-10-09T22:36:04.625Z,101954.72
2018-10-09T22:38:31.785Z,101964.95
2018-10-09T22:40:59.017Z,101967.09
2018-10-09T22:43:26.114Z,101964.53
2018-10-09T22:45:53.225Z,101972.39
2018-10-09T22:48:20.297Z,101971.88
2018-10-09T22:50:47.398Z,101970.84
2018-10-09T22:53:14.634Z,101973.18
2018-10-09T22:55:41.769Z,101974.97
2018-10-09T22:58:08.972Z,101977.44
2018-10-09T23:00:36.015Z,101976.53
2018-10-09T23:03:03.126Z,101986.78
2018-10-09T23:05:30.099Z,101988.07
2018-10-09T23:07:57.225Z,101988.48
2018-10-09T23:10:24.461Z,101990.65
2018-10-09T23:12:51.529Z,101987.27
2018-10-09T23:15:18.624Z,101984.17
2018-10-09T23:17:45.777Z,101986.69
2018-10-09T23:20:14.345Z,101991.19
2018-10-09T23:22:41.375Z,101992.48
2018-10-09T23:25:08.725Z,101998.84
2018-10-09T23:27:35.845Z,101993.91
2018-10-09T23:30:03.508Z,101996.80
2018-10-09T23:32:30.813Z,102000.08
2018-10-09T23:34:57.996Z,101997.90
2018-10-09T23:37:25.618Z,101999.00
2018-10-09T23:39:52.884Z,101994.80
2018-10-09T23:42:20.004Z,101997.79
2018-10-09T23:44:47.226Z,101999.30
2018-10-09T23:47:14.183Z,101995.42
2018-10-09T23:49:41.653Z,101996.20
2018-10-09T23:52:08.948Z,102003.09
2018-10-09T23:54:36.113Z,101997.66
2018-10-09T23:57:03.218Z,101994.30
2018-10-09T23:59:30.410Z,102000.61
